Corona, NY (11368)

3:47 PM EDT on May 24, 2015 (GMT -0400)
Jackson Heights, New York | | Change Station
CLOSE
Current Station
Personal Weather Station
Location: Jackson Heights, NY
Elevation: 89 ft
Nearby Weather Stations
Active Advisory: Special Statement

Elev 89 ft 40.75 °N, 73.88 °W | Updated 3 seconds ago

Mostly Cloudy
Mostly Cloudy
74.8 °F
Feels Like 77 °F
N
11.0
Wind Variable Wind from SSW
Gusts 19.0 mph

Today
High -- | Low -- °F
--% Chance of Precip.
Yesterday
High -- | Low -- °F
Precip. -- in
5:31 AM 8:13 PM
Waxing Crescent, 41% visible
Pressure 30.26 in
Visibility 10.0 miles
Clouds Few 5000 ft
Scattered Clouds 18000 ft
Mostly Cloudy 25000 ft
Heat Index 77 °F
Dew Point 50 °F
Humidity 42%
Rainfall 0.00 in
Snow Depth Not available.
UV 3.5 out of 12
Pollen 9.00 out of 12
Air Quality Not available.
Flu Activity Widespread
METAR KLGA 241851Z 18014G21KT 10SM FEW050 SCT180 BKN250 26/07 A3025 RMK AO2 SLP245 T02610072

More Conditions Fewer Conditions

Pressure 30.26 in
Visibility 10.0 miles
Clouds Few 5000 ft
Scattered Clouds 18000 ft
Mostly Cloudy 25000 ft
Heat Index 77 °F
Dew Point 50 °F
Humidity 42%
Rainfall 0.00 in
Snow Depth Not available.
UV 3.5 out of 12
Pollen 9.00 out of 12
Air Quality Not available.
Flu Activity Widespread
METAR KLGA 241851Z 18014G21KT 10SM FEW050 SCT180 BKN250 26/07 A3025 RMK AO2 SLP245 T02610072

More Conditions Fewer Conditions

10-Day Weather Forecast

Almanac

Astronomy

May. 24, 2015 Rise Set
Actual Time
Civil Twilight
Nautical Twilight
Astronomical Twilight
Moon
Length of Visible Light
Length of Day
Tomorrow will be .
, % of the Moon is Illuminated

Today's Extremes

State Highs State Lows

Community

WunderPhotos

Upload Photos

1,823,844 photos uploaded!

WunderBlogs® & News

Nearby

Air Quality

  Air Quality AQ Index Pollutant
Not available.

Snow Depth

Station Depth Elevation

Earthquake Activity

City Distance Mag. Time & Date
Minimum magnitude displayed is 2.5.

Coastal Water Temperatures

Place Temperature

Stations

Nearby Weather Stations

Station Location Temp. Windchill Dew Point Humidity Wind Precip. Elev Updated Type
                   
Special Statement
Statement as of 4:44 AM EDT on May 24, 2015

... Enhanced fire weather conditions today into early this
evening...

Southwest flow today into early this evening will be generally 10
to 20 mph and this will help lower dewpoints with vertical mixing.
As a result... minimum relative humidities will be near 25 to 30
percent for much of the region... so these conditions will enhance
the spread and growth of any fires that develop.



444 am EDT sun may 24 2015

... Enhanced fire weather conditions today into early this
evening...

Southwest flow today into early this evening will be generally 10
to 20 mph and this will help lower dewpoints with vertical mixing.
As a result... minimum relative humidities will be near 25 to 30
percent for much of the region... so these conditions will enhance
the spread and growth of any fires that develop.